Ottawa, Ontario

22:29 EST dnia 01-marzec-2015 (GMT -0500)
Ottawa-Macdonald-Cartier International | Change Station
CLOSE
Current Station
Lotnisko
Location: Ottawa International,
n.p.m.: 374 ft
Najbliższa stacja pogodowa

Wysokość 374 ft 45.32 °N, 75.67 °W | Updated 29 minutes ago

Mostly Cloudy
przewaga chmur
19 ° F
Odczuwalna 12 ° F
Płn.
6
Wiatr zmienny Wiatr od PdPdZd

Prognoza na jutro: prawie taka sama temperatura jak dzisiaj.

Dziś
Wysoka -- | Niska -- ° F
--% Prawdop. opadów
Wczoraj
Wysoka -- | Niska -- ° F
Precip. -- cali
6:41 AM 5:49 PM
Powiększający się Księżyc, 89% visible
Ciśnienie 30.10 cali
Widzialność 15.0 mil
chmury Niewiele 11000 ft
przewaga chmur 13000 ft
czynnik chłodzący wiatru 12 ° F
Punkt rosy 16 ° F
Wilgotność 86%
Opady deszczu 0.00 cali
grubość pokrywy śnieżnej Niedostępne.
UV 0 z 12
Pyłki Niedostępne.
Jakość powietrza Niedostępne.
Flu Activity Niedostępne.
METAR CYOW 020300Z 21005KT 15SM FEW110 BKN130 M07/M09 A3007 RMK AC2AC5 SLP192

More Conditions Fewer Conditions

Ciśnienie 30.10 cali
Widzialność 15.0 mil
chmury Niewiele 11000 ft
przewaga chmur 13000 ft
czynnik chłodzący wiatru 12 ° F
Punkt rosy 16 ° F
Wilgotność 86%
Opady deszczu 0.00 cali
grubość pokrywy śnieżnej Niedostępne.
UV 0 z 12
Pyłki Niedostępne.
Jakość powietrza Niedostępne.
Flu Activity Niedostępne.
METAR CYOW 020300Z 21005KT 15SM FEW110 BKN130 M07/M09 A3007 RMK AC2AC5 SLP192

More Conditions Fewer Conditions

10-Day Weather Forecast

Almanac

Astronomia

Mar. 01, 2015 Wschód Zachów
Aktualny czas
Zmierzch cywilny
Zmierzch żeglarski
świt/zmierzch astronomiczny
Księżyc
całkowite oświetlenie
Długość dnia
Tomorrow will be .
, % of the Moon is Illuminated

Dzisiejsze ekstrema

Country Highs Country Lows

Community

WunderPhotos

Upload Photos

1,801,712 zdjęcia zostały przesłane!

WunderBlogs® & News

Nearby

Jakość powietrza

  Jakość powietrza czynnik AQ Zanieczyszczenie
Not available.

Głębokość pokrywy śnieżnej

Station Depth n.p.m.

Aktywność sejsmiczna

Miejscowość Distance Mag. Time & Date
Minimum magnitude displayed is 2.5.

Temperatury wody na wybrzeżu

Miejsce Temperatura

Najbliższa stacja pogodowa